Time;durP1;ratioP1;P1;durP2;ratioP2;P2;SDS_P1;SDS_P2;PMS_P1;PMS_P2;Temp;Humidity;BMP_temperature;BMP_pressure;BME280_temperature;BME280_humidity;BME280_pressure;Samples;Min_cycle;Max_cycle;Signal;HPM_P1;HPM_P2
2022/09/04 00:00:23;;;;;;;5.43;2.83;;;;;;;;;;5032329;28;20040;-73
2022/09/04 00:03:32;;;;;;;7.15;2.95;;;;;;;;;;5031551;28;20044;-72
2022/09/04 00:06:21;;;;;;;5.10;2.53;;;;;;;;;;5040780;28;20041;-74
2022/09/04 00:09:07;;;;;;;;;;;;;;;;;;5032775;28;20637;-72
2022/09/04 00:12:03;;;;;;;4.82;3.05;;;;;;;;;;5034865;28;19910;-73
2022/09/04 00:14:53;;;;;;;5.60;2.95;;;;;;;;;;5032647;28;20092;-72
2022/09/04 00:17:58;;;;;;;4.32;3.10;;;;;;;;;;5045991;28;20020;-76
2022/09/04 00:20:44;;;;;;;6.45;3.28;;;;;;;;;;5030498;28;20518;-78
2022/09/04 00:23:36;;;;;;;4.22;2.80;;;;;;;;;;5031920;28;20033;-78
2022/09/04 00:26:21;;;;;;;7.07;2.67;;;;;;;;;;5032114;28;20037;-78
2022/09/04 00:29:13;;;;;;;4.43;2.65;;;;;;;;;;5031785;28;20476;-77
2022/09/04 00:32:06;;;;;;;6.43;3.13;;;;;;;;;;5032675;28;20037;-71
2022/09/04 00:34:55;;;;;;;5.45;3.05;;;;;;;;;;5030957;28;20039;-77
2022/09/04 00:37:47;;;;;;;4.33;2.97;;;;;;;;;;5043620;28;20025;-78
2022/09/04 00:40:36;;;;;;;3.35;2.70;;;;;;;;;;5042114;28;20260;-78
2022/09/04 00:43:34;;;;;;;7.20;3.25;;;;;;;;;;5031223;28;20507;-76
2022/09/04 00:46:19;;;;;;;4.43;2.90;;;;;;;;;;5031970;28;20038;-77
2022/09/04 00:49:23;;;;;;;5.63;3.20;;;;;;;;;;5032225;28;20385;-76
2022/09/04 00:52:28;;;;;;;5.65;2.70;;;;;;;;;;5017987;28;20441;-85
2022/09/04 00:55:33;;;;;;;5.68;3.55;;;;;;;;;;5017501;28;20040;-72
2022/09/04 00:58:37;;;;;;;3.95;2.90;;;;;;;;;;5030991;28;20029;-72
2022/09/04 01:01:26;;;;;;;5.03;3.10;;;;;;;;;;5030817;28;20033;-72
2022/09/04 01:04:26;;;;;;;5.65;3.30;;;;;;;;;;5031944;28;20036;-73
2022/09/04 01:07:21;;;;;;;4.95;3.20;;;;;;;;;;5029921;28;20051;-72
2022/09/04 01:10:18;;;;;;;4.78;3.33;;;;;;;;;;5030822;28;20045;-72
2022/09/04 01:13:22;;;;;;;7.78;3.25;;;;;;;;;;5030340;28;20029;-83
2022/09/04 01:16:32;;;;;;;5.18;3.03;;;;;;;;;;5034121;28;20108;-84
2022/09/04 01:19:27;;;;;;;3.33;2.50;;;;;;;;;;5035215;28;20029;-85
2022/09/04 01:22:20;;;;;;;5.35;3.13;;;;;;;;;;5017406;28;20045;-85
2022/09/04 01:25:08;;;;;;;4.55;3.08;;;;;;;;;;5031484;28;20522;-86
2022/09/04 01:28:13;;;;;;;5.20;3.40;;;;;;;;;;5030538;28;20076;-84
2022/09/04 01:31:17;;;;;;;5.47;3.20;;;;;;;;;;5031052;28;20091;-72
2022/09/04 01:34:21;;;;;;;5.45;3.55;;;;;;;;;;5029895;28;20094;-72
2022/09/04 01:37:19;;;;;;;4.45;2.97;;;;;;;;;;5030218;28;20030;-72
2022/09/04 01:40:23;;;;;;;4.55;3.47;;;;;;;;;;5029578;28;20026;-73
2022/09/04 01:43:10;;;;;;;7.65;3.55;;;;;;;;;;5031292;28;20041;-71
2022/09/04 01:46:03;;;;;;;7.18;3.47;;;;;;;;;;5029748;28;20030;-76
2022/09/04 01:49:06;;;;;;;9.52;4.43;;;;;;;;;;5030582;28;20477;-72
2022/09/04 01:51:51;;;;;;;5.50;3.30;;;;;;;;;;5030755;28;20072;-72
2022/09/04 01:54:37;;;;;;;5.90;3.92;;;;;;;;;;5030584;28;20094;-72
2022/09/04 01:57:41;;;;;;;4.82;3.13;;;;;;;;;;5031292;28;20025;-72
2022/09/04 02:00:28;;;;;;;4.95;3.28;;;;;;;;;;5030202;28;20057;-72
2022/09/04 02:03:26;;;;;;;5.90;3.40;;;;;;;;;;5031288;28;20041;-78
2022/09/04 02:06:26;;;;;;;8.95;2.83;;;;;;;;;;5031126;28;20045;-77
2022/09/04 02:09:28;;;;;;;4.63;3.05;;;;;;;;;;5029410;28;20021;-77
2022/09/04 02:12:34;;;;;;;4.70;3.00;;;;;;;;;;5030896;28;20018;-77
2022/09/04 02:15:24;;;;;;;3.17;2.53;;;;;;;;;;5023040;28;20022;-78
2022/09/04 02:18:19;;;;;;;7.20;3.22;;;;;;;;;;5030480;28;20033;-78
2022/09/04 02:21:09;;;;;;;5.55;2.92;;;;;;;;;;5016869;28;20037;-78
2022/09/04 02:24:21;;;;;;;6.30;3.25;;;;;;;;;;5041154;28;20033;-73
2022/09/04 02:27:13;;;;;;;3.95;2.70;;;;;;;;;;5007279;28;20040;-77
2022/09/04 02:30:09;;;;;;;5.07;2.92;;;;;;;;;;5030140;28;20033;-76
2022/09/04 02:32:55;;;;;;;4.40;2.90;;;;;;;;;;5043070;28;20029;-77
2022/09/04 02:35:40;;;;;;;6.05;2.72;;;;;;;;;;5029030;28;20056;-77
2022/09/04 02:38:29;;;;;;;3.33;2.38;;;;;;;;;;5028803;28;20028;-78
2022/09/04 02:41:15;;;;;;;4.97;2.88;;;;;;;;;;5029488;28;20042;-79
2022/09/04 02:44:09;;;;;;;3.95;2.75;;;;;;;;;;5030710;28;20104;-75
2022/09/04 02:46:54;;;;;;;5.10;2.90;;;;;;;;;;5028242;28;20098;-76
2022/09/04 02:49:43;;;;;;;3.95;2.70;;;;;;;;;;5039747;28;20048;-77
2022/09/04 02:52:47;;;;;;;7.53;3.00;;;;;;;;;;5044844;28;20112;-76
2022/09/04 02:55:44;;;;;;;5.28;3.03;;;;;;;;;;5030623;28;20485;-76
2022/09/04 02:58:51;;;;;;;5.20;2.78;;;;;;;;;;5039411;28;20021;-74
2022/09/04 03:01:58;;;;;;;4.57;2.67;;;;;;;;;;5033946;28;20032;-87
2022/09/04 03:05:17;;;;;;;5.00;2.72;;;;;;;;;;5033579;28;20356;-85
2022/09/04 03:08:02;;;;;;;;;;;;;;;;;;4994531;28;20037;-86
2022/09/04 03:11:11;;;;;;;5.45;2.90;;;;;;;;;;5038631;28;19909;-87
2022/09/04 03:14:17;;;;;;;6.00;3.03;;;;;;;;;;5035840;28;20055;-86
2022/09/04 03:17:08;;;;;;;5.65;2.75;;;;;;;;;;5039106;28;20033;-73
2022/09/04 03:20:07;;;;;;;6.97;2.80;;;;;;;;;;5044237;28;20059;-73
2022/09/04 03:23:08;;;;;;;4.80;2.83;;;;;;;;;;5035823;28;20033;-73
2022/09/04 03:26:13;;;;;;;4.90;2.83;;;;;;;;;;5038447;28;20493;-74
2022/09/04 03:29:14;;;;;;;4.30;3.00;;;;;;;;;;5018749;28;20057;-73
2022/09/04 03:32:09;;;;;;;3.75;2.72;;;;;;;;;;5033810;28;20461;-73
2022/09/04 03:35:00;;;;;;;6.88;2.30;;;;;;;;;;5019101;28;20037;-75
2022/09/04 03:38:06;;;;;;;5.93;2.85;;;;;;;;;;5033132;28;20030;-74
2022/09/04 03:41:11;;;;;;;4.47;2.25;;;;;;;;;;4982293;28;20040;-77
2022/09/04 03:43:56;;;;;;;5.32;2.97;;;;;;;;;;5028460;28;20520;-77
2022/09/04 03:46:42;;;;;;;6.13;2.67;;;;;;;;;;5034670;28;20448;-77
2022/09/04 03:49:30;;;;;;;4.45;2.53;;;;;;;;;;5019565;28;20037;-76
2022/09/04 03:52:16;;;;;;;3.67;2.35;;;;;;;;;;5019766;28;20072;-76
2022/09/04 03:55:21;;;;;;;4.00;2.65;;;;;;;;;;5032881;28;20099;-72
2022/09/04 03:58:06;;;;;;;7.20;2.55;;;;;;;;;;5031206;28;20069;-72
2022/09/04 04:01:02;;;;;;;3.50;2.20;;;;;;;;;;5031837;28;20044;-72
2022/09/04 04:04:06;;;;;;;6.63;2.60;;;;;;;;;;5033133;28;20099;-72
2022/09/04 04:06:58;;;;;;;5.22;2.47;;;;;;;;;;5031873;28;20036;-71
2022/09/04 04:09:43;;;;;;;8.32;2.75;;;;;;;;;;5031951;28;20116;-73
2022/09/04 04:12:43;;;;;;;3.22;2.30;;;;;;;;;;5018723;28;20104;-77
2022/09/04 04:15:39;;;;;;;6.97;2.50;;;;;;;;;;5032500;28;20029;-78
2022/09/04 04:18:28;;;;;;;2.75;2.00;;;;;;;;;;5017205;28;20037;-77
2022/09/04 04:21:20;;;;;;;6.43;2.58;;;;;;;;;;5030797;28;20032;-76
2022/09/04 04:24:08;;;;;;;5.90;3.33;;;;;;;;;;5045927;28;20029;-77
2022/09/04 04:27:06;;;;;;;4.93;2.45;;;;;;;;;;5033879;28;20057;-77
2022/09/04 04:30:08;;;;;;;2.92;2.40;;;;;;;;;;5032312;28;20103;-76
2022/09/04 04:33:12;;;;;;;3.22;2.30;;;;;;;;;;5031251;28;20086;-74
2022/09/04 04:36:01;;;;;;;5.85;2.55;;;;;;;;;;5031311;28;20129;-82
2022/09/04 04:38:51;;;;;;;6.60;2.53;;;;;;;;;;5032865;28;20103;-84
2022/09/04 04:42:04;;;;;;;6.05;2.58;;;;;;;;;;5035319;28;20122;-83
2022/09/04 04:48:14;;;;;;;5.00;2.53;;;;;;;;;;5031713;28;20037;-83
2022/09/04 04:50:59;;;;;;;5.03;2.58;;;;;;;;;;5017323;28;20022;-72
2022/09/04 04:53:54;;;;;;;3.65;2.00;;;;;;;;;;5030796;28;20041;-75
2022/09/04 04:56:45;;;;;;;5.03;2.65;;;;;;;;;;5030399;28;20021;-74
2022/09/04 04:59:36;;;;;;;7.50;2.88;;;;;;;;;;5031817;28;20113;-74
2022/09/04 05:02:22;;;;;;;3.70;2.60;;;;;;;;;;5028810;28;20072;-74
2022/09/04 05:05:12;;;;;;;4.25;2.38;;;;;;;;;;5027145;28;20498;-74
2022/09/04 05:08:16;;;;;;;4.25;2.38;;;;;;;;;;5029077;28;20025;-76
2022/09/04 05:11:02;;;;;;;3.15;2.22;;;;;;;;;;5030232;28;20037;-75
2022/09/04 05:13:47;;;;;;;3.95;2.40;;;;;;;;;;5029418;28;20455;-74
2022/09/04 05:16:51;;;;;;;3.10;2.28;;;;;;;;;;5029141;28;20072;-74
2022/09/04 05:19:40;;;;;;;7.35;2.97;;;;;;;;;;5014322;28;20029;-74
2022/09/04 05:22:51;;;;;;;9.02;2.75;;;;;;;;;;5028272;28;20139;-75
2022/09/04 05:25:40;;;;;;;5.63;2.38;;;;;;;;;;5028864;28;20041;-73
2022/09/04 05:28:33;;;;;;;4.07;2.60;;;;;;;;;;5042290;28;20041;-72
2022/09/04 05:31:23;;;;;;;8.38;3.10;;;;;;;;;;5016333;28;20034;-73
2022/09/04 05:34:11;;;;;;;3.92;2.17;;;;;;;;;;5031454;28;20060;-72
2022/09/04 05:37:12;;;;;;;4.47;2.83;;;;;;;;;;5031738;28;20068;-72
2022/09/04 05:40:03;;;;;;;4.35;2.60;;;;;;;;;;5030130;28;20449;-72
2022/09/04 05:43:04;;;;;;;6.20;2.90;;;;;;;;;;5031416;28;20025;-73
2022/09/04 05:45:52;;;;;;;3.97;2.40;;;;;;;;;;5029676;28;20384;-71
2022/09/04 05:48:56;;;;;;;8.85;3.30;;;;;;;;;;5030350;28;20022;-74
2022/09/04 05:51:54;;;;;;;5.07;3.08;;;;;;;;;;5033700;28;20071;-75
2022/09/04 05:54:46;;;;;;;5.45;3.05;;;;;;;;;;5033052;28;20044;-75
2022/09/04 05:57:50;;;;;;;5.13;2.72;;;;;;;;;;5027946;28;20060;-75
2022/09/04 06:00:43;;;;;;;6.75;2.92;;;;;;;;;;5012141;28;20034;-76
2022/09/04 06:03:37;;;;;;;6.32;2.70;;;;;;;;;;5029712;28;20037;-76
2022/09/04 06:06:46;;;;;;;7.35;2.92;;;;;;;;;;5043424;28;20506;-74
2022/09/04 06:09:31;;;;;;;4.07;2.50;;;;;;;;;;4993957;28;20449;-73
2022/09/04 06:12:17;;;;;;;7.50;3.60;;;;;;;;;;5030220;28;20053;-74
2022/09/04 06:15:12;;;;;;;4.75;2.70;;;;;;;;;;5016604;28;20068;-73
2022/09/04 06:17:57;;;;;;;7.00;3.05;;;;;;;;;;5029858;28;20435;-73
2022/09/04 06:20:43;;;;;;;9.70;3.38;;;;;;;;;;5029883;28;20168;-72
2022/09/04 06:23:31;;;;;;;3.88;3.08;;;;;;;;;;5025432;28;20025;-72
2022/09/04 06:26:17;;;;;;;4.40;3.17;;;;;;;;;;5036072;28;20135;-72
2022/09/04 06:29:11;;;;;;;7.00;3.65;;;;;;;;;;5033967;28;20069;-76
2022/09/04 06:31:57;;;;;;;5.50;3.55;;;;;;;;;;5034143;28;20029;-73
2022/09/04 06:35:01;;;;;;;4.93;3.35;;;;;;;;;;5033358;28;20017;-72
2022/09/04 06:38:02;;;;;;;6.90;4.43;;;;;;;;;;5032872;28;20079;-73
2022/09/04 06:40:58;;;;;;;4.80;3.38;;;;;;;;;;5033564;28;20087;-73
2022/09/04 06:44:02;;;;;;;6.53;3.45;;;;;;;;;;5020253;28;20033;-73
2022/09/04 06:47:04;;;;;;;5.85;3.60;;;;;;;;;;5033390;28;20021;-74
2022/09/04 06:49:58;;;;;;;6.00;2.90;;;;;;;;;;5031749;28;20120;-74
2022/09/04 06:53:03;;;;;;;5.63;2.80;;;;;;;;;;5044545;28;20051;-73
2022/09/04 06:56:00;;;;;;;3.83;2.60;;;;;;;;;;5028520;28;20025;-74
2022/09/04 06:58:52;;;;;;;5.50;2.60;;;;;;;;;;5019572;28;20032;-87
2022/09/04 07:01:51;;;;;;;3.10;2.65;;;;;;;;;;5034024;28;20032;-78
2022/09/04 07:04:55;;;;;;;6.97;2.60;;;;;;;;;;5033542;28;20071;-79
2022/09/04 07:07:52;;;;;;;5.35;3.03;;;;;;;;;;5019555;28;20038;-77
2022/09/04 07:10:43;;;;;;;3.95;2.80;;;;;;;;;;5033753;28;20025;-78
2022/09/04 07:13:32;;;;;;;6.53;3.40;;;;;;;;;;5032283;28;20037;-79
2022/09/04 07:16:31;;;;;;;6.63;4.18;;;;;;;;;;5033325;28;20033;-85
2022/09/04 07:19:17;;;;;;;;;;;;;;;;;;5033799;28;20120;-73
2022/09/04 07:22:03;;;;;;;5.68;2.75;;;;;;;;;;5032392;28;19909;-73
2022/09/04 07:25:08;;;;;;;5.90;2.70;;;;;;;;;;5031967;28;20029;-73
2022/09/04 07:28:09;;;;;;;4.43;2.60;;;;;;;;;;5032905;28;20076;-74
2022/09/04 07:31:02;;;;;;;4.18;2.60;;;;;;;;;;5018530;28;20431;-74
2022/09/04 07:33:57;;;;;;;6.30;2.60;;;;;;;;;;5031493;28;20112;-73
2022/09/04 07:37:01;;;;;;;4.40;2.30;;;;;;;;;;5020764;28;20079;-73
2022/09/04 07:39:51;;;;;;;4.60;2.45;;;;;;;;;;5032748;28;20025;-74
2022/09/04 07:42:43;;;;;;;4.40;2.42;;;;;;;;;;5034161;28;20083;-74
2022/09/04 07:45:32;;;;;;;3.65;2.20;;;;;;;;;;5032916;28;20025;-74
2022/09/04 07:48:50;;;;;;;6.28;1.90;;;;;;;;;;5031740;28;20515;-74
2022/09/04 07:51:47;;;;;;;2.25;1.88;;;;;;;;;;5004059;28;20048;-73
2022/09/04 07:54:32;;;;;;;5.07;2.00;;;;;;;;;;5017472;28;20129;-75
2022/09/04 07:57:24;;;;;;;2.85;2.10;;;;;;;;;;5034133;28;20029;-77
2022/09/04 08:00:16;;;;;;;5.72;2.05;;;;;;;;;;5038579;28;20448;-77
2022/09/04 08:03:02;;;;;;;3.47;2.33;;;;;;;;;;5052125;28;20115;-79
2022/09/04 08:06:05;;;;;;;5.25;2.50;;;;;;;;;;5043968;28;20021;-78
2022/09/04 08:09:00;;;;;;;5.50;1.70;;;;;;;;;;5029682;28;20041;-77
2022/09/04 08:12:18;;;;;;;2.75;1.88;;;;;;;;;;5031756;28;20460;-73
2022/09/04 08:15:27;;;;;;;3.90;1.58;;;;;;;;;;4991733;28;20037;-77
2022/09/04 08:18:24;;;;;;;1.67;1.33;;;;;;;;;;5032191;28;20046;-77
2022/09/04 08:21:09;;;;;;;6.18;1.90;;;;;;;;;;5032228;28;20033;-79
2022/09/04 08:23:58;;;;;;;2.95;1.80;;;;;;;;;;5043936;28;20029;-78
2022/09/04 08:27:02;;;;;;;4.35;2.50;;;;;;;;;;5044455;28;20067;-79
2022/09/04 08:30:02;;;;;;;2.22;1.63;;;;;;;;;;5030459;28;20033;-79
2022/09/04 08:33:20;;;;;;;3.58;1.35;;;;;;;;;;5017202;28;20096;-76
2022/09/04 08:36:14;;;;;;;1.88;1.35;;;;;;;;;;4992274;28;20041;-77
2022/09/04 08:39:00;;;;;;;2.55;1.30;;;;;;;;;;5030665;28;20109;-76
2022/09/04 08:42:04;;;;;;;4.78;1.65;;;;;;;;;;5034667;28;20017;-76
2022/09/04 08:45:16;;;;;;;2.88;1.60;;;;;;;;;;5049754;28;20045;-76
2022/09/04 08:48:20;;;;;;;3.90;1.92;;;;;;;;;;5033277;28;20121;-83
2022/09/04 08:51:25;;;;;;;3.65;1.45;;;;;;;;;;5030962;28;20479;-78
2022/09/04 08:54:24;;;;;;;3.88;1.50;;;;;;;;;;5033736;28;20033;-79
2022/09/04 08:57:28;;;;;;;2.97;1.35;;;;;;;;;;5030722;28;20449;-78
2022/09/04 09:00:31;;;;;;;1.52;1.30;;;;;;;;;;5030488;28;20033;-78
2022/09/04 09:03:23;;;;;;;5.20;2.42;;;;;;;;;;5031619;28;20481;-77
2022/09/04 09:06:09;;;;;;;3.60;1.80;;;;;;;;;;5031727;28;20086;-82
2022/09/04 09:09:10;;;;;;;3.67;1.23;;;;;;;;;;5030309;28;20087;-79
2022/09/04 09:11:58;;;;;;;3.70;1.50;;;;;;;;;;5031921;28;20033;-72
2022/09/04 09:14:51;;;;;;;4.03;1.58;;;;;;;;;;5030945;28;20040;-72
2022/09/04 09:17:38;;;;;;;2.65;1.55;;;;;;;;;;5031697;28;20096;-72
2022/09/04 09:20:23;;;;;;;2.53;1.60;;;;;;;;;;5015955;28;20034;-72
2022/09/04 09:23:12;;;;;;;6.93;2.40;;;;;;;;;;5037023;28;20036;-72
2022/09/04 09:26:08;;;;;;;1.67;1.40;;;;;;;;;;5021050;28;20040;-77
2022/09/04 09:29:11;;;;;;;4.68;1.65;;;;;;;;;;5028775;28;20124;-74
2022/09/04 09:32:10;;;;;;;2.17;1.83;;;;;;;;;;5029629;28;20157;-74
2022/09/04 09:35:14;;;;;;;2.40;1.92;;;;;;;;;;5030557;28;20459;-73
2022/09/04 09:38:09;;;;;;;2.80;1.75;;;;;;;;;;5016992;28;20072;-75
2022/09/04 09:40:54;;;;;;;4.25;2.35;;;;;;;;;;5031010;28;20033;-73
2022/09/04 09:43:59;;;;;;;1.75;1.30;;;;;;;;;;5031265;28;20030;-74
2022/09/04 09:46:49;;;;;;;1.70;1.40;;;;;;;;;;5033580;28;20032;-73
2022/09/04 09:50:10;;;;;;;1.42;1.15;;;;;;;;;;5036234;28;20056;-74
2022/09/04 09:52:58;;;;;;;1.67;1.33;;;;;;;;;;4937913;28;20502;-73
2022/09/04 09:55:47;;;;;;;5.00;1.35;;;;;;;;;;5044061;28;20391;-74
2022/09/04 09:58:55;;;;;;;0.95;0.90;;;;;;;;;;5016817;28;20036;-74
2022/09/04 10:01:53;;;;;;;2.15;1.02;;;;;;;;;;5019792;28;20045;-75
2022/09/04 10:04:51;;;;;;;1.88;1.10;;;;;;;;;;5033179;28;20086;-86
2022/09/04 10:07:46;;;;;;;1.13;0.90;;;;;;;;;;5034107;28;20487;-81
2022/09/04 10:10:44;;;;;;;1.13;1.00;;;;;;;;;;5035078;28;20068;-79
2022/09/04 10:13:45;;;;;;;2.50;1.15;;;;;;;;;;5035059;28;20036;-79
2022/09/04 10:16:44;;;;;;;1.10;1.00;;;;;;;;;;5034198;28;20373;-79
2022/09/04 10:19:53;;;;;;;1.17;0.90;;;;;;;;;;5019645;28;20049;-80
2022/09/04 10:22:51;;;;;;;1.08;0.93;;;;;;;;;;4989602;28;20047;-83
2022/09/04 10:25:36;;;;;;;1.33;1.17;;;;;;;;;;5041283;28;20024;-74
2022/09/04 10:28:40;;;;;;;2.17;1.73;;;;;;;;;;5034183;28;20065;-73
2022/09/04 10:31:35;;;;;;;3.03;2.00;;;;;;;;;;5033360;28;20365;-73
2022/09/04 10:34:39;;;;;;;3.30;1.67;;;;;;;;;;5034248;28;20030;-73
2022/09/04 10:37:28;;;;;;;2.45;1.52;;;;;;;;;;5032986;28;20029;-73
2022/09/04 10:40:35;;;;;;;3.92;1.40;;;;;;;;;;5037898;28;20025;-85
2022/09/04 10:43:21;;;;;;;2.30;1.30;;;;;;;;;;5035412;28;20048;-73
2022/09/04 10:46:15;;;;;;;1.50;1.10;;;;;;;;;;5032719;28;20052;-74
2022/09/04 10:49:19;;;;;;;1.92;1.20;;;;;;;;;;5034736;28;20041;-74
2022/09/04 10:52:11;;;;;;;1.20;1.10;;;;;;;;;;5032869;28;20112;-74
2022/09/04 10:54:57;;;;;;;1.48;1.00;;;;;;;;;;5033282;28;20048;-74
2022/09/04 10:58:01;;;;;;;2.95;1.30;;;;;;;;;;5019550;28;20388;-82
2022/09/04 11:01:02;;;;;;;2.30;1.05;;;;;;;;;;5034933;28;20033;-88
2022/09/04 11:03:54;;;;;;;2.28;1.30;;;;;;;;;;5040779;28;20380;-89
2022/09/04 11:06:58;;;;;;;1.80;1.33;;;;;;;;;;5052675;28;20021;-90
2022/09/04 11:09:49;;;;;;;2.97;1.20;;;;;;;;;;5042206;28;20022;-88
2022/09/04 11:12:53;;;;;;;2.22;1.13;;;;;;;;;;5034290;28;20028;-85
2022/09/04 11:15:39;;;;;;;2.80;1.10;;;;;;;;;;5032603;28;20408;-81
2022/09/04 11:18:27;;;;;;;2.05;1.23;;;;;;;;;;5018947;28;20067;-76
2022/09/04 11:21:22;;;;;;;2.95;1.40;;;;;;;;;;5032309;28;20203;-76
2022/09/04 11:24:16;;;;;;;3.28;1.23;;;;;;;;;;5045896;28;20442;-74
2022/09/04 11:27:20;;;;;;;1.55;1.30;;;;;;;;;;5032796;28;20082;-75
2022/09/04 11:30:16;;;;;;;4.32;1.42;;;;;;;;;;5018813;28;20080;-74
2022/09/04 11:33:05;;;;;;;2.90;1.70;;;;;;;;;;5032849;28;20403;-74
2022/09/04 11:36:14;;;;;;;1.75;1.05;;;;;;;;;;5032463;28;20384;-73
2022/09/04 11:39:18;;;;;;;1.38;1.00;;;;;;;;;;5033142;28;20033;-74
2022/09/04 11:42:25;;;;;;;2.28;1.48;;;;;;;;;;5043448;28;20021;-75
2022/09/04 11:45:15;;;;;;;3.47;1.23;;;;;;;;;;5031239;28;20076;-74
2022/09/04 11:48:25;;;;;;;1.42;1.20;;;;;;;;;;5031827;28;20458;-74
2022/09/04 11:51:23;;;;;;;2.70;1.33;;;;;;;;;;5018089;28;20196;-74
2022/09/04 11:54:17;;;;;;;2.28;1.20;;;;;;;;;;5034298;28;20078;-77
2022/09/04 11:57:02;;;;;;;1.20;1.10;;;;;;;;;;5032310;28;20025;-79
2022/09/04 12:00:00;;;;;;;3.22;1.23;;;;;;;;;;5032068;28;20338;-80
2022/09/04 12:02:46;;;;;;;2.03;1.33;;;;;;;;;;5032619;28;20123;-78
2022/09/04 12:05:50;;;;;;;2.95;1.10;;;;;;;;;;5031309;28;20029;-78
2022/09/04 12:08:54;;;;;;;4.10;2.00;;;;;;;;;;5031761;28;20029;-78
2022/09/04 12:11:44;;;;;;;3.88;1.40;;;;;;;;;;5030928;28;20026;-77
2022/09/04 12:14:39;;;;;;;2.20;1.45;;;;;;;;;;5033426;28;20037;-87
2022/09/04 12:17:46;;;;;;;2.88;1.50;;;;;;;;;;5032187;28;20052;-88
2022/09/04 12:20:50;;;;;;;2.45;1.42;;;;;;;;;;5048862;28;20549;-86
2022/09/04 12:23:48;;;;;;;2.42;1.50;;;;;;;;;;5046585;28;20028;-86
2022/09/04 12:26:36;;;;;;;2.20;1.40;;;;;;;;;;5031306;28;20026;-87
2022/09/04 12:29:25;;;;;;;1.52;1.13;;;;;;;;;;5035992;28;20112;-75
2022/09/04 12:32:29;;;;;;;1.30;1.20;;;;;;;;;;5032633;28;20037;-87
2022/09/04 12:35:16;;;;;;;3.00;1.10;;;;;;;;;;5035696;28;20041;-87
2022/09/04 12:38:10;;;;;;;2.25;1.25;;;;;;;;;;5035861;28;20464;-88
2022/09/04 12:40:56;;;;;;;2.90;1.30;;;;;;;;;;5052190;28;20037;-88
2022/09/04 12:44:03;;;;;;;2.58;1.40;;;;;;;;;;5040703;28;20029;-88
2022/09/04 12:46:49;;;;;;;1.80;1.52;;;;;;;;;;5053028;28;20032;-89
2022/09/04 12:49:40;;;;;;;3.70;1.40;;;;;;;;;;5037228;28;20091;-77
2022/09/04 12:52:32;;;;;;;2.60;1.35;;;;;;;;;;5032366;28;20037;-74
2022/09/04 12:55:24;;;;;;;1.38;1.27;;;;;;;;;;5030323;28;20037;-73
2022/09/04 12:58:20;;;;;;;1.40;1.30;;;;;;;;;;5045780;28;20036;-74
2022/09/04 13:01:07;;;;;;;2.97;1.33;;;;;;;;;;5031308;28;20112;-74
2022/09/04 13:04:06;;;;;;;2.05;1.20;;;;;;;;;;5030933;28;20057;-74
2022/09/04 13:07:10;;;;;;;2.83;1.42;;;;;;;;;;5031294;28;20052;-73
2022/09/04 13:10:19;;;;;;;2.33;1.50;;;;;;;;;;5030108;28;20029;-78
2022/09/04 13:13:10;;;;;;;4.38;1.63;;;;;;;;;;4992382;28;20041;-76
2022/09/04 13:16:09;;;;;;;1.38;1.23;;;;;;;;;;5029668;28;20388;-76
2022/09/04 13:19:13;;;;;;;1.67;1.10;;;;;;;;;;5031048;28;20496;-77
2022/09/04 13:21:59;;;;;;;2.17;1.35;;;;;;;;;;5030470;28;20052;-77
2022/09/04 13:25:03;;;;;;;3.28;2.28;;;;;;;;;;5045107;28;20025;-74
2022/09/04 13:27:48;;;;;;;3.47;2.33;;;;;;;;;;5029137;28;20121;-76
2022/09/04 13:30:39;;;;;;;2.72;1.48;;;;;;;;;;5030082;28;20033;-75
2022/09/04 13:33:39;;;;;;;3.30;1.40;;;;;;;;;;5029465;28;20040;-75
2022/09/04 13:36:34;;;;;;;4.20;1.52;;;;;;;;;;5029704;28;20037;-76
2022/09/04 13:39:38;;;;;;;1.58;1.25;;;;;;;;;;5027268;28;20545;-75
2022/09/04 13:42:42;;;;;;;2.65;1.50;;;;;;;;;;5028019;28;20038;-76
2022/09/04 13:45:33;;;;;;;2.42;1.38;;;;;;;;;;5029808;28;20037;-75
2022/09/04 13:48:25;;;;;;;1.73;1.33;;;;;;;;;;5015629;28;20037;-80
2022/09/04 13:51:10;;;;;;;1.20;1.10;;;;;;;;;;5029895;28;20117;-78
2022/09/04 13:54:07;;;;;;;2.13;1.40;;;;;;;;;;5015841;28;20253;-79
2022/09/04 13:56:59;;;;;;;3.53;1.55;;;;;;;;;;5016620;28;20136;-80
2022/09/04 13:59:48;;;;;;;2.20;1.52;;;;;;;;;;5030423;28;20030;-79
2022/09/04 14:02:35;;;;;;;3.65;1.40;;;;;;;;;;5031349;28;20092;-88
2022/09/04 14:05:23;;;;;;;2.58;1.20;;;;;;;;;;5016272;28;20029;-73
2022/09/04 14:08:13;;;;;;;3.33;1.52;;;;;;;;;;5031016;28;20093;-74
2022/09/04 14:11:16;;;;;;;1.77;1.40;;;;;;;;;;5029943;28;20021;-72
2022/09/04 14:14:13;;;;;;;2.22;1.45;;;;;;;;;;5016605;28;20057;-74
2022/09/04 14:16:59;;;;;;;2.85;1.67;;;;;;;;;;5028209;28;20112;-72
2022/09/04 14:19:57;;;;;;;2.67;1.20;;;;;;;;;;5031224;28;20378;-77
2022/09/04 14:22:45;;;;;;;3.13;1.60;;;;;;;;;;5033516;28;20047;-73
2022/09/04 14:25:49;;;;;;;2.40;1.38;;;;;;;;;;5038990;28;20033;-74
2022/09/04 14:28:40;;;;;;;2.88;1.70;;;;;;;;;;5016655;28;20037;-73
2022/09/04 14:31:38;;;;;;;2.65;1.48;;;;;;;;;;5030166;28;20067;-73
2022/09/04 14:34:38;;;;;;;1.83;1.63;;;;;;;;;;5044794;28;20032;-73
2022/09/04 14:37:48;;;;;;;2.10;1.58;;;;;;;;;;5029840;28;20143;-74
2022/09/04 14:40:37;;;;;;;3.10;1.30;;;;;;;;;;5016489;28;20042;-89
2022/09/04 14:43:43;;;;;;;1.40;1.23;;;;;;;;;;5030831;28;20427;-77
2022/09/04 14:46:42;;;;;;;1.88;1.42;;;;;;;;;;5031256;28;20063;-77
2022/09/04 14:49:30;;;;;;;2.17;1.52;;;;;;;;;;5033569;28;20183;-77
2022/09/04 14:52:21;;;;;;;2.77;1.50;;;;;;;;;;5034499;28;20488;-77
2022/09/04 14:55:11;;;;;;;3.65;1.30;;;;;;;;;;5032609;28;20256;-78
2022/09/04 14:57:58;;;;;;;3.67;1.52;;;;;;;;;;5035499;28;20034;-73
2022/09/04 15:01:13;;;;;;;3.42;1.55;;;;;;;;;;5035186;28;20514;-77
2022/09/04 15:04:10;;;;;;;3.28;1.45;;;;;;;;;;5028144;28;20108;-78
2022/09/04 15:06:58;;;;;;;3.30;1.70;;;;;;;;;;5031652;28;20109;-79
2022/09/04 15:09:45;;;;;;;4.10;1.95;;;;;;;;;;5033150;28;20037;-80
2022/09/04 15:12:33;;;;;;;3.75;1.80;;;;;;;;;;5032637;28;20034;-79
2022/09/04 15:15:29;;;;;;;2.45;1.50;;;;;;;;;;5045605;28;20483;-73
2022/09/04 15:18:44;;;;;;;4.00;1.67;;;;;;;;;;5034096;28;20124;-78
2022/09/04 15:21:37;;;;;;;2.03;1.25;;;;;;;;;;5026832;28;20041;-78
2022/09/04 15:24:28;;;;;;;3.17;1.70;;;;;;;;;;5047816;28;20102;-77
2022/09/04 15:27:18;;;;;;;2.28;1.63;;;;;;;;;;5031840;28;20545;-78
2022/09/04 15:30:07;;;;;;;1.60;1.40;;;;;;;;;;5045408;28;20053;-78
2022/09/04 15:33:22;;;;;;;1.58;1.30;;;;;;;;;;5033764;28;20068;-89
2022/09/04 15:36:09;;;;;;;2.35;1.30;;;;;;;;;;5030351;28;20029;-76
2022/09/04 15:38:56;;;;;;;1.90;1.45;;;;;;;;;;5032022;28;20030;-76
2022/09/04 15:41:43;;;;;;;2.55;1.52;;;;;;;;;;5033520;28;20384;-76
2022/09/04 15:44:38;;;;;;;2.13;1.60;;;;;;;;;;5033184;28;20040;-76
2022/09/04 15:47:42;;;;;;;2.75;1.58;;;;;;;;;;5045067;28;20045;-76
2022/09/04 15:50:29;;;;;;;1.40;1.30;;;;;;;;;;5046016;28;20515;-77
2022/09/04 15:53:35;;;;;;;1.88;1.40;;;;;;;;;;5018295;28;20456;-74
2022/09/04 15:56:22;;;;;;;7.03;1.90;;;;;;;;;;5032895;28;20108;-73
2022/09/04 15:59:14;;;;;;;5.05;1.50;;;;;;;;;;5032155;28;20033;-73
2022/09/04 16:02:11;;;;;;;1.40;1.15;;;;;;;;;;5031929;28;20022;-72
2022/09/04 16:05:02;;;;;;;1.52;1.40;;;;;;;;;;5033012;28;20068;-73
2022/09/04 16:08:02;;;;;;;3.58;1.48;;;;;;;;;;5033314;28;20021;-73
2022/09/04 16:10:52;;;;;;;6.00;2.80;;;;;;;;;;5017948;28;20021;-79
2022/09/04 16:13:42;;;;;;;3.17;1.58;;;;;;;;;;5017979;28;20035;-72
2022/09/04 16:16:45;;;;;;;6.15;1.42;;;;;;;;;;5032497;28;20456;-72
2022/09/04 16:19:53;;;;;;;2.05;1.65;;;;;;;;;;5017926;28;20076;-72
2022/09/04 16:22:50;;;;;;;3.72;1.45;;;;;;;;;;5034539;28;20029;-72
2022/09/04 16:25:37;;;;;;;3.58;1.77;;;;;;;;;;5039763;28;20025;-72
2022/09/04 16:28:38;;;;;;;2.42;1.60;;;;;;;;;;5031220;28;20033;-74
2022/09/04 16:31:29;;;;;;;2.25;1.45;;;;;;;;;;5032458;28;20053;-76
2022/09/04 16:34:21;;;;;;;2.70;1.52;;;;;;;;;;5016465;28;20025;-79
2022/09/04 16:37:13;;;;;;;3.78;2.50;;;;;;;;;;5016312;28;20032;-77
2022/09/04 16:40:17;;;;;;;4.50;2.50;;;;;;;;;;5030139;28;20028;-78
2022/09/04 16:43:10;;;;;;;2.58;1.98;;;;;;;;;;5030736;28;20366;-78
2022/09/04 16:45:56;;;;;;;2.60;2.00;;;;;;;;;;5015237;28;20492;-77
2022/09/04 16:48:51;;;;;;;4.88;2.10;;;;;;;;;;5031544;28;20030;-77
2022/09/04 16:51:41;;;;;;;3.80;2.20;;;;;;;;;;5031233;28;20033;-75
2022/09/04 16:54:29;;;;;;;4.43;2.70;;;;;;;;;;5032078;28;20171;-75
2022/09/04 16:57:17;;;;;;;3.92;2.65;;;;;;;;;;5031858;28;20453;-74
2022/09/04 17:00:08;;;;;;;4.38;2.65;;;;;;;;;;5031633;28;20057;-75
2022/09/04 17:02:59;;;;;;;5.20;2.70;;;;;;;;;;5032070;28;20112;-74
2022/09/04 17:05:48;;;;;;;7.20;2.90;;;;;;;;;;5032121;28;20045;-76
2022/09/04 17:08:37;;;;;;;3.50;2.67;;;;;;;;;;5017398;28;20029;-76
2022/09/04 17:11:25;;;;;;;5.18;2.90;;;;;;;;;;5029685;28;20069;-76
2022/09/04 17:14:14;;;;;;;4.13;2.80;;;;;;;;;;5017579;28;20060;-76
2022/09/04 17:17:16;;;;;;;8.50;2.97;;;;;;;;;;5016238;28;20029;-76
2022/09/04 17:20:09;;;;;;;6.25;2.80;;;;;;;;;;5016878;28;20115;-76
2022/09/04 17:23:02;;;;;;;5.90;3.08;;;;;;;;;;5020863;28;20021;-75
2022/09/04 17:25:56;;;;;;;8.75;3.53;;;;;;;;;;5037556;28;20033;-73
2022/09/04 17:28:51;;;;;;;15.65;8.30;;;;;;;;;;5018556;28;20033;-76
2022/09/04 17:31:41;;;;;;;6.45;4.28;;;;;;;;;;5030924;28;20087;-77
2022/09/04 17:34:32;;;;;;;8.70;4.35;;;;;;;;;;5029819;28;20064;-76